createdAt,value
2018-09-25T00:01:41.793Z,8.42
2018-09-25T00:04:15.824Z,8.42
2018-09-25T00:06:49.980Z,8.40
2018-09-25T00:09:23.877Z,8.39
2018-09-25T00:11:58.170Z,8.35
2018-09-25T00:14:32.220Z,8.21
2018-09-25T00:17:06.327Z,8.16
2018-09-25T00:19:40.406Z,8.17
2018-09-25T00:22:15.647Z,8.22
2018-09-25T00:24:49.605Z,8.28
2018-09-25T00:27:23.692Z,8.23
2018-09-25T00:29:57.985Z,8.30
2018-09-25T00:32:32.007Z,8.13
2018-09-25T00:35:05.938Z,8.02
2018-09-25T00:37:40.120Z,8.05
2018-09-25T00:40:14.212Z,7.94
2018-09-25T00:42:48.990Z,7.90
2018-09-25T00:45:23.357Z,7.88
2018-09-25T00:47:57.641Z,7.90
2018-09-25T00:50:32.332Z,7.92
2018-09-25T00:53:06.318Z,7.80
2018-09-25T00:55:40.961Z,7.76
2018-09-25T00:58:15.897Z,7.70
2018-09-25T01:00:50.060Z,7.78
2018-09-25T01:03:24.221Z,7.64
2018-09-25T01:05:58.336Z,7.61
2018-09-25T01:08:32.319Z,7.56
2018-09-25T01:11:07.321Z,7.49
2018-09-25T01:13:42.249Z,7.58
2018-09-25T01:16:16.231Z,7.56
2018-09-25T01:18:50.457Z,7.52
2018-09-25T01:21:24.282Z,7.54
2018-09-25T01:23:58.250Z,7.65
2018-09-25T01:26:32.403Z,7.61
2018-09-25T01:29:06.492Z,7.69
2018-09-25T01:31:40.646Z,7.73
2018-09-25T01:34:14.860Z,7.61
2018-09-25T01:36:48.833Z,7.60
2018-09-25T01:39:22.937Z,7.50
2018-09-25T01:41:57.791Z,7.55
2018-09-25T01:44:32.622Z,7.53
2018-09-25T01:47:06.741Z,7.60
2018-09-25T01:49:40.730Z,7.62
2018-09-25T01:52:16.175Z,7.67
2018-09-25T01:54:51.001Z,7.63
2018-09-25T01:57:25.217Z,7.59
2018-09-25T01:59:59.739Z,7.44
2018-09-25T02:02:34.753Z,7.39
2018-09-25T02:05:08.689Z,7.35
2018-09-25T02:07:42.922Z,7.45
2018-09-25T02:10:17.625Z,7.51
2018-09-25T02:12:51.574Z,7.45
2018-09-25T02:15:26.730Z,7.47
2018-09-25T02:18:01.855Z,7.54
2018-09-25T02:20:35.895Z,7.60
2018-09-25T02:23:09.887Z,7.63
2018-09-25T02:25:44.756Z,7.66
2018-09-25T02:28:20.765Z,7.70
2018-09-25T02:30:55.406Z,7.66
2018-09-25T02:33:30.492Z,7.56
2018-09-25T02:36:05.663Z,7.61
2018-09-25T02:38:39.863Z,7.64
2018-09-25T02:41:14.124Z,7.70
2018-09-25T02:43:48.078Z,7.74
2018-09-25T02:46:22.060Z,7.78
2018-09-25T02:48:56.055Z,7.74
2018-09-25T02:51:37.415Z,7.71
2018-09-25T02:54:12.024Z,7.70
2018-09-25T02:56:46.459Z,7.68
2018-09-25T02:59:20.863Z,7.69
2018-09-25T03:01:55.006Z,7.63
2018-09-25T03:04:29.098Z,7.59
2018-09-25T03:07:03.599Z,7.52
2018-09-25T03:09:37.844Z,7.35
2018-09-25T03:12:11.818Z,7.32
2018-09-25T03:14:46.635Z,7.29
2018-09-25T03:17:20.884Z,7.38
2018-09-25T03:19:54.943Z,7.46
2018-09-25T03:22:30.520Z,7.44
2018-09-25T03:25:04.530Z,7.49
2018-09-25T03:27:39.871Z,7.53
2018-09-25T03:30:13.956Z,7.53
2018-09-25T03:32:48.284Z,7.62
2018-09-25T03:35:22.929Z,7.62
2018-09-25T03:37:57.762Z,7.62
2018-09-25T03:40:32.081Z,7.61
2018-09-25T03:43:06.197Z,7.57
2018-09-25T03:45:41.224Z,7.55
2018-09-25T03:48:15.095Z,7.56
2018-09-25T03:50:49.336Z,7.54
2018-09-25T03:53:23.320Z,7.56
2018-09-25T03:55:57.726Z,7.52
2018-09-25T03:58:31.877Z,7.52
2018-09-25T04:01:06.845Z,7.51
2018-09-25T04:03:41.402Z,7.53
2018-09-25T04:06:15.497Z,7.52
2018-09-25T04:08:49.410Z,7.41
2018-09-25T04:11:23.748Z,7.31
2018-09-25T04:13:58.154Z,7.09
2018-09-25T04:16:32.924Z,6.93
2018-09-25T04:19:07.375Z,6.80
2018-09-25T04:21:42.906Z,6.74
2018-09-25T04:24:18.217Z,6.72
2018-09-25T04:26:52.805Z,6.69
2018-09-25T04:29:27.726Z,6.70
2018-09-25T04:32:02.742Z,6.77
2018-09-25T04:34:36.925Z,6.81
2018-09-25T04:37:11.093Z,6.88
2018-09-25T04:39:45.551Z,6.96
2018-09-25T04:42:19.956Z,7.01
2018-09-25T04:44:54.478Z,7.07
2018-09-25T04:47:28.767Z,7.10
2018-09-25T04:50:03.288Z,7.14
2018-09-25T04:52:37.262Z,7.14
2018-09-25T04:55:11.343Z,7.18
2018-09-25T04:57:46.031Z,7.16
2018-09-25T05:00:20.426Z,7.17
2018-09-25T05:02:54.777Z,7.13
2018-09-25T05:05:28.685Z,7.12
2018-09-25T05:08:02.846Z,7.14
2018-09-25T05:10:36.714Z,7.17
2018-09-25T05:13:11.635Z,7.19
2018-09-25T05:15:45.560Z,7.17
2018-09-25T05:18:19.455Z,7.15
2018-09-25T05:20:53.725Z,7.13
2018-09-25T05:23:27.938Z,7.14
2018-09-25T05:26:01.752Z,7.12
2018-09-25T05:28:35.569Z,6.99
2018-09-25T05:31:09.782Z,6.96
2018-09-25T05:33:45.219Z,7.00
2018-09-25T05:36:19.726Z,7.05
2018-09-25T05:38:54.161Z,7.10
2018-09-25T05:41:28.348Z,7.15
2018-09-25T05:44:02.615Z,7.19
2018-09-25T05:46:36.978Z,7.21
2018-09-25T05:49:11.268Z,7.23
2018-09-25T05:51:46.172Z,7.27
2018-09-25T05:54:20.839Z,7.30
2018-09-25T05:56:55.778Z,7.30
2018-09-25T05:59:29.680Z,7.32
2018-09-25T06:02:04.013Z,7.33
2018-09-25T06:04:38.418Z,7.33
2018-09-25T06:07:13.730Z,7.35
2018-09-25T06:09:47.735Z,7.37
2018-09-25T06:12:21.901Z,7.36
2018-09-25T06:14:56.226Z,7.39
2018-09-25T06:17:30.114Z,7.37
2018-09-25T06:20:04.543Z,7.49
2018-09-25T06:22:39.358Z,7.52
2018-09-25T06:25:13.368Z,7.56
2018-09-25T06:27:48.005Z,7.63
2018-09-25T06:30:22.556Z,7.70
2018-09-25T06:32:57.186Z,7.73
2018-09-25T06:35:31.682Z,7.75
2018-09-25T06:38:06.743Z,7.81
2018-09-25T06:40:40.766Z,7.84
2018-09-25T06:43:15.595Z,7.91
2018-09-25T06:45:49.863Z,7.96
2018-09-25T06:48:23.929Z,7.96
2018-09-25T06:50:58.668Z,8.00
2018-09-25T06:53:33.641Z,8.07
2018-09-25T06:56:08.510Z,8.22
2018-09-25T06:58:43.406Z,8.42
2018-09-25T07:01:17.589Z,8.76
2018-09-25T07:03:51.806Z,9.16
2018-09-25T07:06:27.092Z,9.36
2018-09-25T07:09:01.911Z,9.58
2018-09-25T07:11:37.232Z,9.84
2018-09-25T07:14:13.362Z,9.95
2018-09-25T07:16:47.404Z,10.06
2018-09-25T07:19:22.318Z,10.20
2018-09-25T07:21:56.410Z,10.39
2018-09-25T07:24:30.619Z,10.35
2018-09-25T07:27:05.751Z,10.35
2018-09-25T07:29:40.740Z,10.28
2018-09-25T07:32:15.304Z,10.22
2018-09-25T07:34:50.304Z,10.13
2018-09-25T07:37:25.171Z,9.98
2018-09-25T07:39:59.924Z,9.99
2018-09-25T07:42:33.885Z,10.01
2018-09-25T07:45:08.228Z,10.07
2018-09-25T07:47:42.417Z,10.21
2018-09-25T07:50:16.320Z,10.37
2018-09-25T07:52:51.911Z,10.56
2018-09-25T07:55:27.009Z,10.85
2018-09-25T07:58:02.506Z,11.02
2018-09-25T08:00:36.612Z,11.26
2018-09-25T08:03:11.070Z,11.33
2018-09-25T08:05:47.365Z,11.51
2018-09-25T08:08:23.486Z,11.64
2018-09-25T08:10:59.237Z,11.72
2018-09-25T08:13:34.035Z,11.84
2018-09-25T08:16:08.458Z,11.80
2018-09-25T08:18:43.510Z,11.87
2018-09-25T08:21:18.141Z,12.04
2018-09-25T08:23:52.260Z,11.93
2018-09-25T08:26:26.184Z,11.86
2018-09-25T08:29:00.203Z,12.02
2018-09-25T08:31:34.300Z,12.13
2018-09-25T08:34:08.417Z,12.28
2018-09-25T08:36:42.616Z,12.44
2018-09-25T08:39:17.327Z,12.68
2018-09-25T08:41:51.299Z,12.83
2018-09-25T08:44:25.605Z,12.84
2018-09-25T08:46:59.542Z,12.97
2018-09-25T08:49:34.337Z,13.07
2018-09-25T08:52:09.096Z,13.20
2018-09-25T08:54:46.106Z,13.20
2018-09-25T08:57:21.750Z,12.69
2018-09-25T09:02:47.746Z,12.41
2018-09-25T09:05:24.786Z,12.73
2018-09-25T09:08:12.311Z,13.18
2018-09-25T09:10:59.863Z,13.64
2018-09-25T09:13:47.350Z,13.71
2018-09-25T09:16:22.816Z,13.98
2018-09-25T09:18:57.955Z,13.92
2018-09-25T09:21:31.903Z,14.02
2018-09-25T09:24:06.166Z,14.05
2018-09-25T09:26:40.145Z,14.12
2018-09-25T09:29:14.054Z,13.79
2018-09-25T09:31:49.644Z,13.67
2018-09-25T09:34:23.791Z,13.58
2018-09-25T09:36:58.077Z,13.45
2018-09-25T09:39:33.474Z,13.50
2018-09-25T09:42:07.938Z,13.74
2018-09-25T09:44:42.243Z,13.78
2018-09-25T09:47:16.649Z,13.71
2018-09-25T09:49:50.763Z,13.50
2018-09-25T09:52:25.032Z,13.45
2018-09-25T09:54:59.089Z,13.30
2018-09-25T09:57:32.990Z,13.24
2018-09-25T10:00:07.988Z,13.20
2018-09-25T10:02:42.050Z,13.36
2018-09-25T10:05:16.089Z,13.55
2018-09-25T10:07:50.351Z,13.59
2018-09-25T10:10:24.367Z,13.49
2018-09-25T10:12:59.039Z,13.49
2018-09-25T10:15:33.418Z,13.60
2018-09-25T10:18:07.782Z,13.91
2018-09-25T10:20:42.161Z,14.34
2018-09-25T10:23:16.150Z,14.88
2018-09-25T10:25:50.071Z,15.14
2018-09-25T10:28:23.975Z,14.84
2018-09-25T10:30:58.089Z,14.59
2018-09-25T10:33:32.254Z,14.42
2018-09-25T10:36:06.158Z,14.52
2018-09-25T10:38:40.064Z,14.74
2018-09-25T10:41:14.638Z,14.86
2018-09-25T10:43:49.420Z,14.74
2018-09-25T10:46:24.307Z,14.43
2018-09-25T10:48:58.912Z,14.34
2018-09-25T10:51:32.943Z,14.33
2018-09-25T10:54:06.841Z,14.21
2018-09-25T10:56:40.719Z,14.18
2018-09-25T10:59:14.546Z,14.04
2018-09-25T11:01:48.425Z,14.13
2018-09-25T11:04:22.403Z,14.28
2018-09-25T11:06:56.223Z,14.32
2018-09-25T11:09:30.314Z,14.25
2018-09-25T11:12:04.316Z,14.27
2018-09-25T11:14:38.731Z,14.12
2018-09-25T11:17:12.954Z,13.99
2018-09-25T11:19:47.062Z,14.04
2018-09-25T11:22:21.128Z,14.09
2018-09-25T11:24:54.954Z,14.29
2018-09-25T11:27:28.835Z,14.28
2018-09-25T11:30:03.498Z,14.22
2018-09-25T11:32:38.047Z,14.25
2018-09-25T11:35:12.621Z,14.28
2018-09-25T11:37:46.576Z,14.32
2018-09-25T11:40:21.511Z,14.50
2018-09-25T11:42:57.111Z,14.79
2018-09-25T11:45:30.966Z,15.02
2018-09-25T11:48:04.831Z,15.12
2018-09-25T11:50:39.334Z,15.00
2018-09-25T11:53:13.281Z,14.75
2018-09-25T11:55:47.218Z,14.78
2018-09-25T11:58:21.288Z,14.74
2018-09-25T12:00:55.138Z,15.40
2018-09-25T12:03:29.147Z,16.67
2018-09-25T12:06:03.985Z,18.63
2018-09-25T12:08:37.848Z,21.48
2018-09-25T12:11:12.356Z,22.48
2018-09-25T12:13:46.650Z,22.00
2018-09-25T12:16:21.056Z,21.73
2018-09-25T12:18:55.728Z,21.73
2018-09-25T12:21:29.636Z,20.41
2018-09-25T12:24:03.785Z,19.61
2018-09-25T12:26:37.843Z,19.96
2018-09-25T12:29:11.828Z,20.01
2018-09-25T12:31:46.055Z,19.61
2018-09-25T12:34:20.190Z,18.97
2018-09-25T12:36:54.138Z,17.99
2018-09-25T12:39:28.120Z,17.32
2018-09-25T12:42:02.140Z,16.71
2018-09-25T12:44:36.258Z,16.49
2018-09-25T12:47:10.621Z,16.28
2018-09-25T12:49:44.867Z,16.29
2018-09-25T12:52:18.944Z,16.16
2018-09-25T12:54:53.062Z,16.11
2018-09-25T12:57:26.957Z,16.22
2018-09-25T13:00:01.205Z,16.25
2018-09-25T13:02:35.085Z,16.33
2018-09-25T13:05:09.067Z,16.39
2018-09-25T13:07:43.032Z,16.40
2018-09-25T13:10:17.898Z,16.41
2018-09-25T13:12:52.258Z,16.32
2018-09-25T13:15:26.711Z,16.26
2018-09-25T13:18:00.793Z,16.15
2018-09-25T13:20:34.769Z,16.09
2018-09-25T13:23:09.019Z,16.03
2018-09-25T13:25:45.302Z,15.93
2018-09-25T13:28:19.224Z,15.57
2018-09-25T13:30:53.233Z,15.33
2018-09-25T13:33:27.266Z,15.09
2018-09-25T13:36:01.305Z,14.69
2018-09-25T13:38:35.379Z,14.53
2018-09-25T13:41:09.456Z,14.52
2018-09-25T13:43:43.251Z,14.63
2018-09-25T13:46:17.248Z,14.67
2018-09-25T13:48:51.264Z,14.70
2018-09-25T13:51:25.146Z,14.86
2018-09-25T13:53:59.337Z,14.94
2018-09-25T13:56:34.597Z,15.00
2018-09-25T13:59:08.489Z,15.09
2018-09-25T14:01:42.381Z,15.02
2018-09-25T14:04:17.038Z,14.98
2018-09-25T14:06:51.175Z,14.98
2018-09-25T14:09:25.059Z,15.10
2018-09-25T14:11:59.022Z,15.15
2018-09-25T14:14:32.870Z,15.16
2018-09-25T14:17:06.942Z,15.15
2018-09-25T14:19:40.783Z,15.03
2018-09-25T14:22:14.980Z,14.95
2018-09-25T14:24:49.345Z,14.90
2018-09-25T14:27:23.396Z,14.88
2018-09-25T14:29:57.331Z,14.89
2018-09-25T14:32:31.312Z,14.91
2018-09-25T14:35:05.327Z,14.91
2018-09-25T14:37:39.324Z,14.97
2018-09-25T14:40:13.450Z,15.07
2018-09-25T14:42:47.698Z,15.00
2018-09-25T14:45:21.586Z,14.90
2018-09-25T14:47:55.795Z,14.87
2018-09-25T14:50:29.750Z,14.87
2018-09-25T14:53:03.532Z,14.86
2018-09-25T14:55:37.368Z,14.74
2018-09-25T14:58:11.706Z,14.49
2018-09-25T15:00:45.808Z,14.45
2018-09-25T15:03:20.193Z,14.46
2018-09-25T15:05:55.006Z,14.47
2018-09-25T15:08:28.950Z,14.41
2018-09-25T15:11:03.090Z,14.41
2018-09-25T15:13:37.538Z,14.40
2018-09-25T15:16:11.672Z,14.34
2018-09-25T15:18:45.674Z,14.30
2018-09-25T15:21:20.051Z,14.21
2018-09-25T15:23:54.139Z,14.28
2018-09-25T15:26:30.195Z,14.18
2018-09-25T15:29:04.382Z,14.20
2018-09-25T15:31:38.436Z,14.38
2018-09-25T15:34:12.712Z,14.38
2018-09-25T15:36:46.778Z,14.39
2018-09-25T15:39:21.969Z,14.41
2018-09-25T15:41:56.947Z,14.31
2018-09-25T15:44:31.368Z,14.35
2018-09-25T15:47:05.529Z,14.30
2018-09-25T15:49:39.469Z,14.26
2018-09-25T15:52:14.053Z,14.11
2018-09-25T15:54:48.687Z,14.05
2018-09-25T15:57:23.256Z,13.94
2018-09-25T15:59:58.050Z,13.79
2018-09-25T16:02:32.160Z,13.73
2018-09-25T16:05:06.361Z,13.61
2018-09-25T16:07:40.385Z,13.59
2018-09-25T16:10:14.399Z,13.57
2018-09-25T16:13:05.963Z,13.53
2018-09-25T16:15:44.755Z,13.49
2018-09-25T16:18:19.986Z,13.53
2018-09-25T16:20:54.395Z,13.50
2018-09-25T16:23:28.746Z,13.47
2018-09-25T16:26:08.596Z,13.44
2018-09-25T16:28:55.697Z,13.38
2018-09-25T16:31:30.010Z,13.34
2018-09-25T16:34:04.157Z,13.24
2018-09-25T16:36:38.465Z,13.17
2018-09-25T16:39:15.067Z,13.12
2018-09-25T16:41:49.775Z,13.06
2018-09-25T16:44:23.921Z,13.04
2018-09-25T16:47:00.315Z,12.98
2018-09-25T16:49:34.683Z,12.94
2018-09-25T16:52:08.959Z,12.88
2018-09-25T16:54:43.299Z,12.83
2018-09-25T16:57:17.277Z,12.77
2018-09-25T16:59:52.106Z,12.73
2018-09-25T17:02:26.257Z,12.66
2018-09-25T17:05:00.896Z,12.62
2018-09-25T17:07:35.027Z,12.58
2018-09-25T17:10:09.209Z,12.54
2018-09-25T17:12:43.235Z,12.49
2018-09-25T17:15:17.512Z,12.46
2018-09-25T17:17:51.771Z,12.42
2018-09-25T17:20:25.877Z,12.39
2018-09-25T17:23:00.050Z,12.36
2018-09-25T17:25:34.482Z,12.32
2018-09-25T17:28:08.498Z,12.29
2018-09-25T17:30:42.596Z,12.24
2018-09-25T17:33:16.671Z,12.20
2018-09-25T17:35:51.195Z,12.17
2018-09-25T17:38:25.430Z,12.11
2018-09-25T17:40:59.328Z,12.07
2018-09-25T17:43:33.417Z,12.05
2018-09-25T17:46:07.351Z,12.03
2018-09-25T17:48:41.292Z,12.00
2018-09-25T17:51:15.314Z,11.97
2018-09-25T17:53:49.628Z,11.94
2018-09-25T17:56:23.689Z,11.88
2018-09-25T17:58:57.540Z,11.84
2018-09-25T18:01:31.755Z,11.80
2018-09-25T18:04:05.771Z,11.78
2018-09-25T18:06:39.725Z,11.75
2018-09-25T18:09:15.152Z,11.75
2018-09-25T18:11:49.072Z,11.73
2018-09-25T18:14:23.153Z,11.73
2018-09-25T18:16:57.149Z,11.71
2018-09-25T18:19:31.368Z,11.68
2018-09-25T18:22:05.291Z,11.66
2018-09-25T18:24:39.330Z,11.66
2018-09-25T18:27:13.395Z,11.66
2018-09-25T18:29:47.302Z,11.63
2018-09-25T18:32:21.160Z,11.62
2018-09-25T18:34:55.225Z,11.60
2018-09-25T18:37:29.109Z,11.57
2018-09-25T18:40:03.389Z,11.53
2018-09-25T18:42:37.832Z,11.49
2018-09-25T18:45:12.016Z,11.46
2018-09-25T18:47:46.287Z,11.44
2018-09-25T18:50:20.518Z,11.40
2018-09-25T18:52:54.429Z,11.38
2018-09-25T18:55:28.951Z,11.37
2018-09-25T18:58:03.131Z,11.37
2018-09-25T19:00:36.983Z,11.34
2018-09-25T19:03:11.225Z,11.34
2018-09-25T19:05:45.278Z,11.33
2018-09-25T19:08:19.940Z,11.32
2018-09-25T19:10:53.810Z,11.28
2018-09-25T19:13:27.823Z,11.26
2018-09-25T19:16:02.608Z,11.25
2018-09-25T19:18:36.594Z,11.19
2018-09-25T19:21:10.943Z,11.15
2018-09-25T19:23:45.243Z,11.15
2018-09-25T19:26:19.266Z,11.13
2018-09-25T19:28:53.354Z,11.11
2018-09-25T19:31:27.664Z,11.10
2018-09-25T19:34:01.698Z,11.02
2018-09-25T19:36:36.335Z,10.99
2018-09-25T19:39:14.013Z,10.95
2018-09-25T19:41:52.772Z,10.95
2018-09-25T19:44:33.531Z,10.92
2018-09-25T19:47:10.696Z,10.86
2018-09-25T19:49:45.428Z,10.81
2018-09-25T19:52:20.163Z,10.73
2018-09-25T19:54:54.421Z,10.73
2018-09-25T19:57:29.306Z,10.69
2018-09-25T20:00:03.722Z,10.69
2018-09-25T20:02:42.505Z,10.68
2018-09-25T20:05:16.570Z,10.59
2018-09-25T20:07:51.793Z,10.53
2018-09-25T20:10:27.075Z,10.52
2018-09-25T20:13:02.925Z,10.55
2018-09-25T20:15:37.135Z,10.56
2018-09-25T20:18:11.711Z,10.58
2018-09-25T20:20:47.811Z,10.58
2018-09-25T20:23:21.748Z,10.56
2018-09-25T20:25:56.118Z,10.55
2018-09-25T20:28:30.014Z,10.47
2018-09-25T20:31:04.785Z,10.29
2018-09-25T20:33:38.954Z,10.17
2018-09-25T20:36:13.120Z,10.19
2018-09-25T20:38:47.387Z,10.23
2018-09-25T20:41:21.447Z,10.24
2018-09-25T20:43:55.642Z,10.21
2018-09-25T20:46:29.564Z,10.18
2018-09-25T20:49:04.147Z,10.17
2018-09-25T20:51:38.031Z,10.15
2018-09-25T20:54:12.118Z,10.15
2018-09-25T20:56:47.148Z,10.16
2018-09-25T20:59:21.044Z,10.08
2018-09-25T21:01:55.470Z,10.08
2018-09-25T21:04:29.900Z,10.11
2018-09-25T21:07:04.287Z,10.11
2018-09-25T21:09:38.288Z,10.11
2018-09-25T21:12:12.535Z,10.14
2018-09-25T21:14:46.534Z,10.13
2018-09-25T21:17:21.544Z,10.13
2018-09-25T21:19:55.645Z,10.15
2018-09-25T21:22:29.554Z,10.16
2018-09-25T21:25:03.855Z,10.16
2018-09-25T21:27:38.062Z,10.15
2018-09-25T21:30:11.911Z,10.15
2018-09-25T21:32:45.982Z,10.12
2018-09-25T21:35:20.705Z,10.05
2018-09-25T21:37:54.633Z,10.01
2018-09-25T21:40:29.304Z,9.99
2018-09-25T21:43:03.196Z,9.95
2018-09-25T21:45:37.172Z,9.93
2018-09-25T21:48:12.438Z,9.90
2018-09-25T21:50:46.773Z,9.90
2018-09-25T21:53:21.801Z,9.89
2018-09-25T21:55:56.088Z,9.84
2018-09-25T21:58:31.332Z,9.81
2018-09-25T22:01:05.548Z,9.78
2018-09-25T22:03:39.842Z,9.72
2018-09-25T22:06:14.219Z,9.69
2018-09-25T22:08:48.022Z,9.65
2018-09-25T22:11:22.726Z,9.61
2018-09-25T22:13:56.589Z,9.63
2018-09-25T22:16:30.538Z,9.63
2018-09-25T22:19:04.575Z,9.61
2018-09-25T22:21:38.757Z,9.64
2018-09-25T22:24:13.838Z,9.62
2018-09-25T22:26:48.123Z,9.57
2018-09-25T22:29:22.235Z,9.55
2018-09-25T22:31:56.196Z,9.53
2018-09-25T22:34:30.584Z,9.51
2018-09-25T22:37:06.104Z,9.46
2018-09-25T22:39:42.088Z,9.48
2018-09-25T22:42:17.627Z,9.41
2018-09-25T22:44:53.488Z,9.37
2018-09-25T22:47:27.666Z,9.34
2018-09-25T22:50:02.092Z,9.25
2018-09-25T22:52:35.970Z,9.15
2018-09-25T22:55:11.475Z,8.95
2018-09-25T22:57:45.307Z,8.86
2018-09-25T23:00:19.255Z,8.74
2018-09-25T23:02:53.787Z,8.77
2018-09-25T23:05:28.283Z,8.67
2018-09-25T23:08:02.331Z,8.71
2018-09-25T23:10:36.438Z,8.51
2018-09-25T23:13:10.852Z,8.52
2018-09-25T23:15:45.556Z,8.55
2018-09-25T23:18:19.277Z,8.56
2018-09-25T23:20:53.207Z,8.66
2018-09-25T23:23:27.252Z,8.70
2018-09-25T23:26:01.300Z,8.74
2018-09-25T23:28:35.439Z,8.64
2018-09-25T23:31:10.467Z,8.53
2018-09-25T23:33:44.380Z,8.43
2018-09-25T23:36:18.533Z,8.47
2018-09-25T23:38:52.637Z,8.48
2018-09-25T23:41:28.758Z,8.51
2018-09-25T23:44:03.014Z,8.47
2018-09-25T23:46:39.333Z,8.42
2018-09-25T23:49:14.466Z,8.36
2018-09-25T23:52:14.030Z,8.28
2018-09-25T23:54:48.163Z,8.36
2018-09-25T23:57:23.989Z,8.26
